Time;durP1;ratioP1;P1;durP2;ratioP2;P2;SDS_P1;SDS_P2;PMS_P1;PMS_P2;Temp;Humidity;BMP_temperature;BMP_pressure;BME280_temperature;BME280_humidity;BME280_pressure;Samples;Min_cycle;Max_cycle;Signal;HPM_P1;HPM_P2
2021/05/08 00:00:29;;;;;;;5.88;3.60;;;282.30;2278.40;;;;;;5072987;28;20119;-86
2021/05/08 00:02:55;;;;;;;6.63;3.83;;;282.30;2278.40;;;;;;5085190;28;20033;-88
2021/05/08 00:05:21;;;;;;;5.45;3.53;;;282.30;2278.40;;;;;;5081688;28;20020;-86
2021/05/08 00:07:46;;;;;;;5.63;3.83;;;282.40;2278.40;;;;;;5092434;28;20032;-88
2021/05/08 00:10:14;;;;;;;5.20;3.28;;;282.50;2278.40;;;;;;5087559;28;20075;-88
2021/05/08 00:12:42;;;;;;;7.00;3.72;;;282.40;2278.40;;;;;;5082274;28;20028;-90
2021/05/08 00:15:10;;;;;;;5.40;4.22;;;282.40;2278.40;;;;;;5086376;28;20027;-88
2021/05/08 00:17:36;;;;;;;5.78;3.92;;;282.30;2278.40;;;;;;5088881;28;20028;-88
2021/05/08 00:20:06;;;;;;;5.60;3.90;;;282.40;2278.40;;;;;;5093288;28;20062;-87
2021/05/08 00:22:32;;;;;;;5.85;3.97;;;282.40;2278.40;;;;;;5091515;28;20472;-87
2021/05/08 00:24:57;;;;;;;6.03;4.53;;;282.40;2278.40;;;;;;5091620;28;20028;-87
2021/05/08 00:27:23;;;;;;;6.20;4.13;;;282.40;2278.40;;;;;;5082439;28;20120;-87
2021/05/08 00:29:49;;;;;;;8.25;3.85;;;282.50;2278.40;;;;;;5091127;28;20481;-86
2021/05/08 00:32:14;;;;;;;6.10;4.43;;;282.40;2278.40;;;;;;5087656;28;20028;-86
2021/05/08 00:34:40;;;;;;;5.88;4.07;;;282.50;2278.40;;;;;;5084993;28;20444;-86
2021/05/08 00:37:06;;;;;;;6.63;4.60;;;282.50;2278.40;;;;;;5086739;28;20069;-85
2021/05/08 00:39:31;;;;;;;5.95;4.43;;;307.20;2304.00;;;;;;5092003;28;20710;-82
2021/05/08 00:41:57;;;;;;;7.30;4.43;;;282.50;2278.40;;;;;;5092205;28;20028;-84
2021/05/08 00:44:23;;;;;;;5.40;3.78;;;282.50;2278.40;;;;;;5088704;28;20042;-84
2021/05/08 00:46:49;;;;;;;9.10;4.03;;;282.50;2278.40;;;;;;5090191;28;20032;-85
2021/05/08 00:49:16;;;;;;;6.13;4.40;;;282.50;2278.40;;;;;;5092133;28;20020;-85
2021/05/08 00:51:42;;;;;;;8.13;5.07;;;282.50;2278.40;;;;;;5077470;28;20017;-84
2021/05/08 00:54:08;;;;;;;7.75;5.13;;;282.50;2278.40;;;;;;5077357;28;20016;-85
2021/05/08 00:56:34;;;;;;;7.93;5.15;;;282.50;2278.40;;;;;;5092018;28;20102;-84
2021/05/08 00:59:00;;;;;;;7.38;4.20;;;282.30;2278.40;;;;;;5077194;28;20115;-84
2021/05/08 01:01:26;;;;;;;6.38;4.30;;;282.50;2278.40;;;;;;5091610;28;20123;-85
2021/05/08 01:03:52;;;;;;;6.50;4.35;;;282.40;2278.40;;;;;;5091908;28;21794;-84
2021/05/08 01:06:17;;;;;;;7.43;4.18;;;282.40;2278.40;;;;;;5082952;28;20047;-85
2021/05/08 01:08:43;;;;;;;6.85;4.60;;;282.40;2278.40;;;;;;5084547;28;20031;-84
2021/05/08 01:11:10;;;;;;;7.32;5.00;;;282.30;2278.40;;;;;;5075731;28;20496;-85
2021/05/08 01:13:36;;;;;;;5.35;3.95;;;282.30;2278.40;;;;;;5077349;28;20031;-84
2021/05/08 01:16:02;;;;;;;5.93;4.85;;;282.30;2278.40;;;;;;5085017;28;20017;-84
2021/05/08 01:18:29;;;;;;;8.60;4.20;;;282.30;2278.40;;;;;;5079755;28;20023;-85
2021/05/08 01:20:55;;;;;;;5.82;3.80;;;282.30;2278.40;;;;;;5088324;28;20024;-84
2021/05/08 01:23:21;;;;;;;6.20;3.92;;;282.30;2278.40;;;;;;5077985;28;20030;-84
2021/05/08 01:25:47;;;;;;;6.55;4.45;;;282.30;2278.40;;;;;;5091362;28;20020;-83
2021/05/08 01:28:13;;;;;;;6.35;4.55;;;282.30;2278.40;;;;;;5084099;28;20032;-83
2021/05/08 01:30:39;;;;;;;9.50;5.05;;;282.20;2278.40;;;;;;5083917;28;20020;-82
2021/05/08 01:33:06;;;;;;;6.70;4.25;;;282.20;2278.40;;;;;;5075708;28;20114;-85
2021/05/08 01:35:33;;;;;;;6.30;4.68;;;282.30;2278.40;;;;;;5080348;28;20751;-85
2021/05/08 01:37:59;;;;;;;8.48;5.35;;;282.10;2278.40;;;;;;5072232;28;20017;-82
2021/05/08 01:40:43;;;;;;;6.03;4.55;;;282.10;2278.40;;;;;;5080625;28;20037;-82
2021/05/08 01:43:09;;;;;;;7.90;5.20;;;282.10;2278.40;;;;;;5073148;28;20031;-80
2021/05/08 01:45:35;;;;;;;9.15;5.50;;;282.00;2278.40;;;;;;5081881;28;20032;-79
2021/05/08 01:48:03;;;;;;;7.57;5.32;;;282.00;2278.40;;;;;;5085364;28;20030;-81
2021/05/08 01:50:29;;;;;;;7.55;4.82;;;281.90;2278.40;;;;;;5090848;28;20111;-78
2021/05/08 01:52:55;;;;;;;5.90;4.30;;;281.90;2278.40;;;;;;5089576;28;20154;-79
2021/05/08 01:55:24;;;;;;;7.88;4.78;;;281.90;2278.40;;;;;;5091619;28;20027;-79
2021/05/08 01:57:51;;;;;;;7.43;5.32;;;281.90;2278.40;;;;;;5078823;28;20025;-80
2021/05/08 02:00:20;;;;;;;7.35;5.10;;;281.80;2278.40;;;;;;5088314;28;20028;-79
2021/05/08 02:02:47;;;;;;;7.60;5.03;;;281.70;2278.40;;;;;;5089558;28;20032;-80
2021/05/08 02:05:14;;;;;;;7.40;4.57;;;281.70;2278.40;;;;;;5075672;28;20149;-79
2021/05/08 02:07:39;;;;;;;7.38;4.57;;;281.70;2278.40;;;;;;5080591;28;20028;-79
2021/05/08 02:10:07;;;;;;;6.22;4.57;;;281.70;2278.40;;;;;;5069553;28;20054;-77
2021/05/08 02:12:33;;;;;;;7.40;4.85;;;281.70;2278.40;;;;;;5072489;28;20024;-78
2021/05/08 02:15:00;;;;;;;7.90;5.30;;;281.70;2278.40;;;;;;5080267;28;20051;-77
2021/05/08 02:17:26;;;;;;;6.07;4.30;;;281.60;2278.40;;;;;;5085240;28;20024;-78
2021/05/08 02:19:51;;;;;;;6.65;4.30;;;281.60;2278.40;;;;;;5082136;28;20025;-78
2021/05/08 02:22:20;;;;;;;6.63;4.50;;;281.60;2278.40;;;;;;5083233;28;20039;-78
2021/05/08 02:24:46;;;;;;;6.28;4.95;;;281.60;2278.40;;;;;;5083560;28;20024;-79
2021/05/08 02:27:12;;;;;;;8.63;3.83;;;281.60;2278.40;;;;;;5069552;28;20449;-79
2021/05/08 02:29:39;;;;;;;5.25;4.10;;;256.90;2252.80;;;;;;5086957;28;20040;-79
2021/05/08 02:32:07;;;;;;;8.20;4.55;;;256.90;2252.80;;;;;;5094423;28;20030;-78
2021/05/08 02:34:33;;;;;;;6.43;4.05;;;256.80;2252.80;;;;;;5094109;28;20020;-79
2021/05/08 02:36:58;;;;;;;5.38;3.75;;;256.80;2252.80;;;;;;5074853;28;20021;-80
2021/05/08 02:39:25;;;;;;;6.50;4.80;;;256.80;2252.80;;;;;;5084589;28;20115;-77
2021/05/08 02:41:51;;;;;;;7.05;4.88;;;256.70;2252.80;;;;;;5076150;28;20039;-78
2021/05/08 02:44:17;;;;;;;8.30;5.55;;;256.50;2252.80;;;;;;5084976;28;20479;-78
2021/05/08 02:46:42;;;;;;;7.55;5.22;;;256.50;2252.80;;;;;;5078491;28;20020;-78
2021/05/08 02:49:08;;;;;;;8.20;5.63;;;256.50;2252.80;;;;;;5093266;28;20502;-77
2021/05/08 02:51:34;;;;;;;8.48;5.22;;;256.50;2252.80;;;;;;5078089;28;20485;-77
2021/05/08 02:54:00;;;;;;;9.38;5.25;;;256.40;2252.80;;;;;;5074158;28;20016;-77
2021/05/08 02:56:25;;;;;;;9.43;6.82;;;256.40;2252.80;;;;;;5073409;28;20028;-77
2021/05/08 02:58:51;;;;;;;9.05;5.57;;;256.30;2252.80;;;;;;5086925;28;20020;-79
2021/05/08 03:01:17;;;;;;;10.52;5.82;;;256.30;2252.80;;;;;;5072390;28;20082;-79
2021/05/08 03:03:42;;;;;;;7.40;5.80;;;256.30;2252.80;;;;;;5091523;28;20020;-78
2021/05/08 03:06:08;;;;;;;9.18;6.55;;;256.20;2252.80;;;;;;5082971;28;20030;-78
2021/05/08 03:08:34;;;;;;;9.30;5.18;;;256.20;2252.80;;;;;;5087376;28;20038;-78
2021/05/08 03:10:59;;;;;;;7.45;5.35;;;256.20;2252.80;;;;;;5094051;28;20040;-78
2021/05/08 03:13:25;;;;;;;7.50;5.32;;;256.20;2252.80;;;;;;5080063;28;20028;-78
2021/05/08 03:15:51;;;;;;;6.65;4.13;;;256.10;2252.80;;;;;;5076313;28;20021;-79
2021/05/08 03:18:16;;;;;;;7.82;5.70;;;256.10;2252.80;;;;;;5083764;28;20485;-79
2021/05/08 03:20:42;;;;;;;6.88;5.28;;;256.10;2252.80;;;;;;5088478;28;20028;-83
2021/05/08 03:23:08;;;;;;;7.55;4.90;;;256.00;2252.80;;;;;;5092730;28;20388;-81
2021/05/08 03:25:34;;;;;;;7.22;5.07;;;256.00;2252.80;;;;;;5096369;28;20036;-82
2021/05/08 03:27:59;;;;;;;6.40;4.80;;;256.10;2252.80;;;;;;5079148;28;20025;-83
2021/05/08 03:30:25;;;;;;;7.68;5.47;;;256.00;2252.80;;;;;;5087920;28;20476;-83
2021/05/08 03:32:51;;;;;;;6.05;4.18;;;256.10;2252.80;;;;;;5079490;28;20047;-82
2021/05/08 03:35:17;;;;;;;8.75;4.20;;;256.10;2252.80;;;;;;5082334;28;20107;-80
2021/05/08 03:37:42;;;;;;;8.02;5.00;;;256.10;2252.80;;;;;;5093203;28;20046;-80
2021/05/08 03:40:09;;;;;;;6.32;5.10;;;256.10;2252.80;;;;;;5079794;28;20033;-82
2021/05/08 03:42:34;;;;;;;7.47;5.43;;;256.10;2252.80;;;;;;5092115;28;20040;-81
2021/05/08 03:45:00;;;;;;;5.90;4.53;;;256.10;2252.80;;;;;;5087350;28;20443;-81
2021/05/08 03:47:26;;;;;;;8.00;5.05;;;256.10;2252.80;;;;;;5093031;28;20110;-80
2021/05/08 03:49:51;;;;;;;6.78;4.32;;;256.10;2252.80;;;;;;5089427;28;20414;-82
2021/05/08 03:52:17;;;;;;;8.10;5.75;;;256.10;2252.80;;;;;;5083608;28;20082;-83
2021/05/08 03:54:43;;;;;;;6.88;4.28;;;256.10;2252.80;;;;;;5083640;28;20024;-80
2021/05/08 03:57:09;;;;;;;7.82;5.25;;;256.10;2252.80;;;;;;5092116;28;20411;-78
2021/05/08 03:59:34;;;;;;;6.63;4.40;;;256.10;2252.80;;;;;;5078623;28;20039;-79
2021/05/08 04:02:00;;;;;;;5.72;4.38;;;256.10;2252.80;;;;;;5091642;28;20407;-82
2021/05/08 04:04:26;;;;;;;6.97;4.47;;;256.20;2252.80;;;;;;5083455;28;20540;-82
2021/05/08 04:06:52;;;;;;;7.60;5.15;;;256.20;2252.80;;;;;;5087681;28;20024;-79
2021/05/08 04:09:18;;;;;;;6.05;4.43;;;256.20;2252.80;;;;;;5082878;28;20028;-79
2021/05/08 04:11:43;;;;;;;8.27;4.38;;;256.20;2252.80;;;;;;5086611;28;20104;-78
2021/05/08 04:14:09;;;;;;;6.50;3.88;;;256.20;2252.80;;;;;;5089927;28;20067;-79
2021/05/08 04:16:35;;;;;;;8.15;5.43;;;256.20;2252.80;;;;;;5091079;28;20436;-79
2021/05/08 04:19:02;;;;;;;8.63;4.63;;;256.20;2252.80;;;;;;5078514;28;20025;-79
2021/05/08 04:21:28;;;;;;;5.95;3.80;;;256.20;2252.80;;;;;;5084313;28;20024;-78
2021/05/08 04:23:55;;;;;;;6.35;4.18;;;256.20;2252.80;;;;;;5085386;28;20047;-80
2021/05/08 04:26:21;;;;;;;5.07;4.03;;;256.20;2252.80;;;;;;5090937;28;20020;-80
2021/05/08 04:28:47;;;;;;;7.35;4.63;;;256.20;2252.80;;;;;;5079617;28;20174;-78
2021/05/08 04:31:13;;;;;;;5.97;4.55;;;256.30;2252.80;;;;;;5087564;28;20484;-77
2021/05/08 04:33:38;;;;;;;8.55;4.97;;;256.30;2252.80;;;;;;5092067;28;20020;-77
2021/05/08 04:36:05;;;;;;;6.97;5.15;;;256.20;2252.80;;;;;;5092410;28;20027;-79
2021/05/08 04:38:31;;;;;;;7.13;4.28;;;256.40;2252.80;;;;;;5083641;28;20024;-83
2021/05/08 04:40:56;;;;;;;6.82;4.10;;;256.50;2252.80;;;;;;5085187;28;20028;-80
2021/05/08 04:43:22;;;;;;;6.25;4.50;;;256.60;2252.80;;;;;;5070882;28;20519;-83
2021/05/08 04:45:48;;;;;;;7.43;4.85;;;256.80;2252.80;;;;;;5072050;28;20025;-80
2021/05/08 04:48:30;;;;;;;8.32;4.82;;;256.80;2252.80;;;;;;5074457;28;20028;-81
2021/05/08 04:50:56;;;;;;;7.55;4.63;;;256.90;2252.80;;;;;;5090683;28;20534;-80
2021/05/08 04:53:23;;;;;;;6.88;4.95;;;256.80;2252.80;;;;;;5091998;28;20016;-83
2021/05/08 04:55:49;;;;;;;5.93;3.83;;;256.80;2252.80;;;;;;5090653;28;20024;-83
2021/05/08 04:58:15;;;;;;;6.57;5.03;;;256.90;2252.80;;;;;;5090744;28;20373;-83
2021/05/08 05:00:41;;;;;;;6.15;4.35;;;281.60;2278.40;;;;;;5090618;28;20030;-83
2021/05/08 05:03:07;;;;;;;7.63;4.63;;;281.80;2252.80;;;;;;5090785;28;20024;-81
2021/05/08 05:05:33;;;;;;;7.40;4.70;;;281.90;2227.20;;;;;;5075191;28;20066;-83
2021/05/08 05:07:59;;;;;;;7.30;4.90;;;281.90;2252.80;;;;;;5086692;28;20051;-81
2021/05/08 05:10:24;;;;;;;7.60;4.72;;;281.80;2201.60;;;;;;5073347;28;20045;-80
2021/05/08 05:12:50;;;;;;;13.10;6.20;;;281.90;2227.20;;;;;;5080478;28;20036;-82
2021/05/08 05:15:18;;;;;;;7.60;5.30;;;281.90;2227.20;;;;;;5091371;28;20114;-83
2021/05/08 05:17:44;;;;;;;8.18;4.15;;;282.00;2201.60;;;;;;5075651;28;20024;-81
2021/05/08 05:20:10;;;;;;;7.07;4.07;;;282.00;2176.00;;;;;;5081889;28;20031;-81
2021/05/08 05:22:36;;;;;;;5.88;4.63;;;282.10;2176.00;;;;;;5080665;28;20093;-80
2021/05/08 05:25:03;;;;;;;6.40;4.28;;;282.20;2176.00;;;;;;5089341;28;20036;-80
2021/05/08 05:27:30;;;;;;;7.05;4.90;;;282.20;2201.60;;;;;;5076806;28;20028;-80
2021/05/08 05:29:55;;;;;;;6.97;4.90;;;282.30;2124.80;;;;;;5087223;28;20427;-80
2021/05/08 05:32:21;;;;;;;6.00;3.90;;;282.40;2099.20;;;;;;5086927;28;20021;-81
2021/05/08 05:34:47;;;;;;;7.57;4.28;;;282.40;2124.80;;;;;;5076167;28;20024;-78
2021/05/08 05:37:12;;;;;;;9.02;5.32;;;282.50;2099.20;;;;;;5088783;28;20034;-82
2021/05/08 05:39:38;;;;;;;7.85;5.13;;;307.20;2099.20;;;;;;5081687;28;20020;-82
2021/05/08 05:42:04;;;;;;;6.93;4.88;;;307.40;2124.80;;;;;;5089366;28;20439;-81
2021/05/08 05:44:30;;;;;;;7.82;5.10;;;307.60;2124.80;;;;;;5088558;28;20040;-80
2021/05/08 05:46:56;;;;;;;8.00;5.15;;;307.60;2124.80;;;;;;5073668;28;20035;-81
2021/05/08 05:49:21;;;;;;;7.18;5.22;;;307.70;2073.60;;;;;;5073087;28;20033;-81
2021/05/08 05:51:47;;;;;;;7.53;5.25;;;307.60;2073.60;;;;;;5089266;28;20024;-82
2021/05/08 05:54:14;;;;;;;8.88;5.65;;;307.80;2073.60;;;;;;5085901;28;20063;-80
2021/05/08 05:56:40;;;;;;;5.45;3.97;;;307.70;2048.00;;;;;;5091243;28;20027;-82
2021/05/08 05:59:05;;;;;;;5.80;4.88;;;307.70;2048.00;;;;;;5080953;28;20024;-81
2021/05/08 06:01:31;;;;;;;6.70;4.40;;;307.90;2022.40;;;;;;5085791;28;20031;-82
2021/05/08 06:03:57;;;;;;;6.85;5.05;;;308.10;1996.80;;;;;;5090837;28;20407;-82
2021/05/08 06:06:23;;;;;;;7.40;4.50;;;308.10;1945.60;;;;;;5090612;28;20028;-79
2021/05/08 06:08:48;;;;;;;5.97;4.20;;;332.90;2022.40;;;;;;5088853;28;22368;-81
2021/05/08 06:11:14;;;;;;;6.13;4.47;;;333.10;1996.80;;;;;;5091114;28;20036;-81
2021/05/08 06:13:40;;;;;;;5.07;4.22;;;333.30;1920.00;;;;;;5085690;28;20377;-81
2021/05/08 06:16:08;;;;;;;6.30;4.60;;;333.30;1945.60;;;;;;5094415;28;20023;-81
2021/05/08 06:18:35;;;;;;;8.30;6.35;;;333.30;1971.20;;;;;;5093586;28;20205;-82
2021/05/08 06:21:02;;;;;;;5.75;4.25;;;333.50;1945.60;;;;;;5082397;28;20032;-80
2021/05/08 06:23:28;;;;;;;6.68;4.32;;;333.70;1920.00;;;;;;5094992;28;20034;-79
2021/05/08 06:25:53;;;;;;;8.15;6.22;;;358.40;1894.40;;;;;;5079823;28;20109;-80
2021/05/08 06:28:19;;;;;;;9.40;5.05;;;358.50;1868.80;;;;;;5093595;28;20020;-81
2021/05/08 06:30:45;;;;;;;6.38;4.78;;;358.50;1843.20;;;;;;5092818;28;20036;-79
2021/05/08 06:33:11;;;;;;;7.55;5.07;;;358.60;1792.00;;;;;;5078982;28;20016;-79
2021/05/08 06:35:37;;;;;;;8.45;5.53;;;358.50;1817.60;;;;;;5089538;28;20073;-79
2021/05/08 06:38:03;;;;;;;15.18;5.35;;;358.60;1868.80;;;;;;5081160;28;20044;-80
2021/05/08 06:40:29;;;;;;;6.88;4.28;;;358.80;1817.60;;;;;;5094457;28;20063;-80
2021/05/08 06:42:55;;;;;;;6.10;4.72;;;358.80;1817.60;;;;;;5094103;28;20035;-79
2021/05/08 06:45:21;;;;;;;6.85;5.03;;;358.90;1792.00;;;;;;5093077;28;20024;-81
2021/05/08 06:47:49;;;;;;;7.57;5.13;;;359.10;1766.40;;;;;;5083476;28;20077;-78
2021/05/08 06:50:15;;;;;;;5.47;4.68;;;359.10;1766.40;;;;;;5092667;28;20028;-80
2021/05/08 06:52:41;;;;;;;5.28;4.32;;;359.30;1740.80;;;;;;5091124;28;20219;-79
2021/05/08 06:55:07;;;;;;;7.80;5.53;;;359.30;1715.20;;;;;;5090035;28;20080;-78
2021/05/08 06:57:33;;;;;;;6.72;5.18;;;384.10;1689.60;;;;;;5091089;28;20039;-79
2021/05/08 06:59:59;;;;;;;7.07;4.68;;;384.20;1689.60;;;;;;5092789;28;20050;-80
2021/05/08 07:02:25;;;;;;;5.68;4.57;;;384.30;1664.00;;;;;;5086906;28;20380;-80
2021/05/08 07:04:51;;;;;;;5.95;4.43;;;384.30;1689.60;;;;;;5089172;28;20035;-79
2021/05/08 07:07:16;;;;;;;5.68;4.10;;;384.20;1638.40;;;;;;5090023;28;20028;-81
2021/05/08 07:09:42;;;;;;;7.18;4.35;;;384.30;1612.80;;;;;;5091822;28;20070;-78
2021/05/08 07:12:09;;;;;;;4.80;4.30;;;384.20;1612.80;;;;;;5090041;28;20509;-80
2021/05/08 07:14:34;;;;;;;6.13;3.97;;;384.10;1664.00;;;;;;5084302;28;20032;-79
2021/05/08 07:17:00;;;;;;;7.75;4.88;;;384.30;1638.40;;;;;;5085587;28;20061;-77
2021/05/08 07:19:26;;;;;;;6.43;4.35;;;384.20;1664.00;;;;;;5092328;28;20027;-79
2021/05/08 07:21:51;;;;;;;7.35;4.47;;;384.30;1587.20;;;;;;5092370;28;20476;-79
2021/05/08 07:24:17;;;;;;;8.40;5.13;;;384.50;1612.80;;;;;;5087559;28;20039;-80
2021/05/08 07:26:43;;;;;;;5.88;4.57;;;384.70;1612.80;;;;;;5088025;28;20500;-80
2021/05/08 07:29:10;;;;;;;7.03;5.85;;;384.80;1561.60;;;;;;5091011;28;20107;-80
2021/05/08 07:31:35;;;;;;;6.93;4.63;;;384.80;1536.00;;;;;;5089716;28;20016;-80
2021/05/08 07:34:01;;;;;;;5.40;4.13;;;384.70;1561.60;;;;;;5092139;28;20082;-79
2021/05/08 07:36:27;;;;;;;5.70;4.20;;;409.60;1561.60;;;;;;5091705;28;20511;-79
2021/05/08 07:38:53;;;;;;;8.57;4.40;;;409.80;1536.00;;;;;;5091988;28;20135;-79
2021/05/08 07:41:19;;;;;;;6.25;4.22;;;409.90;1510.40;;;;;;5087324;28;20028;-77
2021/05/08 07:43:44;;;;;;;9.77;4.97;;;409.90;1510.40;;;;;;5090843;28;20024;-78
2021/05/08 07:46:10;;;;;;;7.97;4.85;;;409.90;1536.00;;;;;;5085387;28;20447;-79
2021/05/08 07:48:36;;;;;;;5.25;4.38;;;410.20;1484.80;;;;;;5088475;28;20040;-79
2021/05/08 07:51:01;;;;;;;7.40;5.65;;;410.30;1484.80;;;;;;5086717;28;20028;-79
2021/05/08 07:53:27;;;;;;;7.25;4.18;;;410.40;1510.40;;;;;;5093264;28;20028;-78
2021/05/08 07:55:53;;;;;;;8.73;6.10;;;435.20;1459.20;;;;;;5091447;28;20103;-78
2021/05/08 07:58:19;;;;;;;8.55;5.93;;;435.40;1433.60;;;;;;5086728;28;20043;-79
2021/05/08 08:00:44;;;;;;;9.13;4.72;;;435.40;1433.60;;;;;;5085084;28;20035;-77
2021/05/08 08:03:10;;;;;;;6.85;4.78;;;435.80;1356.80;;;;;;5092609;28;20085;-80
2021/05/08 08:05:36;;;;;;;5.20;4.35;;;436.00;1356.80;;;;;;5088841;28;20115;-79
2021/05/08 08:08:02;;;;;;;5.90;4.72;;;435.90;1331.20;;;;;;5089876;28;20582;-79
2021/05/08 08:10:28;;;;;;;6.05;4.38;;;435.90;1331.20;;;;;;5084757;28;20131;-79
2021/05/08 08:12:55;;;;;;;6.90;4.90;;;436.00;1356.80;;;;;;5086799;28;20033;-79
2021/05/08 08:15:20;;;;;;;16.63;6.03;;;436.00;1331.20;;;;;;5091125;28;20024;-79
2021/05/08 08:17:46;;;;;;;5.47;4.60;;;436.10;1331.20;;;;;;5074430;28;20029;-79
2021/05/08 08:20:14;;;;;;;5.57;3.35;;;461.30;1331.20;;;;;;5086643;28;20491;-79
2021/05/08 08:22:41;;;;;;;4.72;3.35;;;461.50;1203.20;;;;;;5078552;28;20440;-79
2021/05/08 08:25:10;;;;;;;5.22;4.10;;;461.30;1228.80;;;;;;5087796;28;20032;-80
2021/05/08 08:27:36;;;;;;;5.82;4.00;;;461.40;1228.80;;;;;;5081192;28;20404;-79
2021/05/08 08:30:06;;;;;;;6.50;4.80;;;461.70;1177.60;;;;;;5090214;28;20035;-79
2021/05/08 08:32:32;;;;;;;6.57;4.15;;;461.50;1203.20;;;;;;5081448;28;20366;-78
2021/05/08 08:34:58;;;;;;;3.85;3.10;;;486.40;1203.20;;;;;;5072201;28;20095;-78
2021/05/08 08:37:24;;;;;;;6.43;4.72;;;486.70;1100.80;;;;;;5079230;28;20112;-79
2021/05/08 08:39:49;;;;;;;5.60;4.50;;;486.70;1152.00;;;;;;5080910;28;20036;-78
2021/05/08 08:42:16;;;;;;;5.50;4.85;;;487.30;1126.40;;;;;;5089814;28;20032;-78
2021/05/08 08:44:41;;;;;;;4.97;3.75;;;486.90;1152.00;;;;;;5079915;28;20036;-78
2021/05/08 08:47:30;;;;;;;5.03;3.20;;;486.60;1075.20;;;;;;5086654;28;20040;-78
2021/05/08 08:50:09;;;;;;;5.30;4.22;;;486.50;1049.60;;;;;;5082796;28;20024;-80
2021/05/08 08:52:35;;;;;;;4.53;3.83;;;487.30;1100.80;;;;;;5075606;28;20481;-78
2021/05/08 08:55:01;;;;;;;4.82;3.53;;;512.30;1049.60;;;;;;5087131;28;20106;-78
2021/05/08 08:57:36;;;;;;;6.00;4.45;;;512.50;998.40;;;;;;5082142;28;20171;-77
2021/05/08 09:00:05;;;;;;;6.25;4.15;;;486.90;1049.60;;;;;;5086355;28;20126;-77
2021/05/08 09:02:31;;;;;;;5.57;4.32;;;486.90;1049.60;;;;;;5085653;28;20016;-78
2021/05/08 09:04:58;;;;;;;5.30;3.85;;;487.20;1049.60;;;;;;5082349;28;20028;-76
2021/05/08 09:07:28;;;;;;;4.65;3.47;;;486.70;1049.60;;;;;;5081373;28;20139;-77
2021/05/08 09:09:54;;;;;;;5.75;4.47;;;487.10;1024.00;;;;;;5086753;28;20393;-77
2021/05/08 09:12:24;;;;;;;5.22;3.97;;;512.10;998.40;;;;;;5087126;28;20024;-77
2021/05/08 09:14:50;;;;;;;5.30;3.72;;;487.20;998.40;;;;;;5086943;28;20089;-77
2021/05/08 09:17:17;;;;;;;5.30;3.78;;;487.20;1024.00;;;;;;5089192;28;20492;-77
2021/05/08 09:20:00;;;;;;;5.53;3.90;;;512.00;972.80;;;;;;5088288;28;20482;-77
2021/05/08 09:22:33;;;;;;;4.10;3.35;;;512.50;921.60;;;;;;5090754;28;20036;-76
2021/05/08 09:25:10;;;;;;;6.18;4.53;;;512.60;947.20;;;;;;5088925;28;20036;-76
2021/05/08 09:27:47;;;;;;;7.28;5.28;;;512.00;972.80;;;;;;5091302;28;20028;-76
2021/05/08 09:30:25;;;;;;;6.70;4.70;;;486.40;1049.60;;;;;;5080839;28;20056;-77
2021/05/08 09:33:01;;;;;;;5.85;3.92;;;486.40;1049.60;;;;;;5084403;28;20039;-78
2021/05/08 09:35:35;;;;;;;5.32;4.43;;;512.50;921.60;;;;;;5087781;28;20024;-76
2021/05/08 09:38:10;;;;;;;5.93;4.28;;;512.80;972.80;;;;;;5081919;28;20074;-76
2021/05/08 09:40:37;;;;;;;4.72;4.25;;;512.90;947.20;;;;;;5091777;28;20028;-77
2021/05/08 09:43:10;;;;;;;9.73;4.28;;;512.00;972.80;;;;;;5089180;28;20423;-76
2021/05/08 09:45:39;;;;;;;5.20;4.47;;;512.80;921.60;;;;;;5088624;28;20020;-77
2021/05/08 09:48:31;;;;;;;8.00;4.10;;;538.10;921.60;;;;;;5089159;28;20028;-77
2021/05/08 09:51:25;;;;;;;5.22;4.70;;;537.60;947.20;;;;;;5088734;28;20068;-77
2021/05/08 09:53:53;;;;;;;4.32;3.30;;;512.50;921.60;;;;;;5088591;28;20028;-76
2021/05/08 09:56:37;;;;;;;8.35;4.55;;;537.80;921.60;;;;;;5094510;28;20120;-77
2021/05/08 09:59:37;;;;;;;6.70;4.93;;;563.20;921.60;;;;;;5091236;28;20515;-83
2021/05/08 10:02:03;;;;;;;6.20;4.25;;;563.70;870.40;;;;;;5089964;28;20036;-78
2021/05/08 10:04:30;;;;;;;6.05;4.30;;;563.60;870.40;;;;;;5091746;28;20389;-77
2021/05/08 10:07:21;;;;;;;6.40;4.28;;;564.00;870.40;;;;;;5090374;28;20032;-78
2021/05/08 10:09:48;;;;;;;5.07;4.40;;;589.10;870.40;;;;;;5086077;28;20055;-77
2021/05/08 10:12:16;;;;;;;4.28;3.88;;;563.70;870.40;;;;;;5082857;28;20507;-77
2021/05/08 10:14:43;;;;;;;5.40;4.90;;;537.70;870.40;;;;;;5083061;28;20092;-77
2021/05/08 10:17:12;;;;;;;6.70;5.47;;;512.60;896.00;;;;;;5086146;28;20020;-78
2021/05/08 10:19:39;;;;;;;7.80;6.05;;;538.10;921.60;;;;;;5086574;28;20055;-78
2021/05/08 10:22:10;;;;;;;7.50;5.70;;;512.20;972.80;;;;;;5084947;28;20119;-79
2021/05/08 10:24:40;;;;;;;7.03;5.47;;;486.90;1024.00;;;;;;5085819;28;20097;-77
2021/05/08 10:27:07;;;;;;;6.47;4.95;;;486.40;1049.60;;;;;;5088553;28;20137;-77
2021/05/08 10:29:41;;;;;;;8.00;6.43;;;512.30;947.20;;;;;;5088704;28;20043;-80
2021/05/08 10:32:11;;;;;;;5.45;4.85;;;538.20;896.00;;;;;;5084209;28;20423;-79
2021/05/08 10:34:39;;;;;;;5.75;4.47;;;563.70;870.40;;;;;;5084897;28;20027;-78
2021/05/08 10:37:12;;;;;;;7.32;5.13;;;564.10;870.40;;;;;;5082573;28;20480;-78
2021/05/08 10:40:05;;;;;;;6.15;5.47;;;537.90;947.20;;;;;;5084664;28;20032;-78
2021/05/08 10:42:47;;;;;;;6.70;5.18;;;487.10;998.40;;;;;;5086139;28;20041;-79
2021/05/08 10:45:15;;;;;;;6.18;4.80;;;487.00;998.40;;;;;;5086583;28;20024;-78
2021/05/08 10:48:00;;;;;;;8.85;5.95;;;512.70;947.20;;;;;;5084355;28;20028;-78
2021/05/08 10:50:35;;;;;;;8.25;5.00;;;538.40;921.60;;;;;;5099311;28;20029;-79
2021/05/08 10:53:01;;;;;;;7.38;6.18;;;563.30;921.60;;;;;;5086590;28;20492;-79
2021/05/08 10:55:29;;;;;;;6.18;5.38;;;563.30;896.00;;;;;;5086814;28;20535;-80
2021/05/08 10:58:13;;;;;;;5.85;5.05;;;563.40;896.00;;;;;;5082820;28;20727;-79
2021/05/08 11:00:57;;;;;;;10.90;7.72;;;589.30;819.20;;;;;;5084175;28;20481;-80
2021/05/08 11:03:45;;;;;;;6.30;4.40;;;614.40;819.20;;;;;;5089263;28;20074;-79
2021/05/08 11:06:11;;;;;;;7.85;5.60;;;614.60;793.60;;;;;;5074524;28;20396;-80
2021/05/08 11:08:37;;;;;;;7.68;4.88;;;614.70;716.80;;;;;;5089848;28;20028;-79
2021/05/08 11:11:05;;;;;;;10.30;8.27;;;589.50;768.00;;;;;;5084801;28;20094;-80
2021/05/08 11:13:43;;;;;;;7.57;5.53;;;589.60;793.60;;;;;;5084708;28;20028;-81
2021/05/08 11:16:13;;;;;;;7.45;6.25;;;563.90;870.40;;;;;;5104332;28;20032;-80
2021/05/08 11:18:41;;;;;;;9.00;6.07;;;538.40;870.40;;;;;;5095102;28;20025;-80
2021/05/08 11:21:13;;;;;;;6.57;5.28;;;512.60;921.60;;;;;;5088770;28;20103;-80
2021/05/08 11:23:42;;;;;;;7.15;5.60;;;563.50;870.40;;;;;;5088947;28;20024;-81
2021/05/08 11:26:28;;;;;;;9.82;5.10;;;589.40;819.20;;;;;;5099794;28;20078;-80
2021/05/08 11:29:06;;;;;;;7.25;6.00;;;615.20;768.00;;;;;;5085701;28;20420;-80
2021/05/08 11:31:32;;;;;;;7.18;4.70;;;640.10;742.40;;;;;;5098133;28;20040;-81
2021/05/08 11:34:11;;;;;;;6.60;5.22;;;614.90;768.00;;;;;;5093143;28;20028;-81
2021/05/08 11:36:49;;;;;;;6.90;4.97;;;589.20;819.20;;;;;;5087129;28;20024;-80
2021/05/08 11:39:29;;;;;;;7.07;5.20;;;564.10;793.60;;;;;;5090296;28;20032;-80
2021/05/08 11:42:00;;;;;;;6.80;4.82;;;563.30;896.00;;;;;;5090574;28;20085;-80
2021/05/08 11:44:37;;;;;;;8.43;5.22;;;589.30;819.20;;;;;;5090311;28;20024;-82
2021/05/08 11:47:27;;;;;;;7.55;5.70;;;614.40;768.00;;;;;;5099184;28;20028;-80
2021/05/08 11:49:58;;;;;;;8.80;6.78;;;615.30;742.40;;;;;;5091582;28;20024;-80
2021/05/08 11:52:34;;;;;;;8.45;5.70;;;640.20;716.80;;;;;;5090506;28;20469;-82
2021/05/08 11:55:00;;;;;;;8.23;5.90;;;665.60;742.40;;;;;;5088790;28;20020;-82
2021/05/08 11:57:26;;;;;;;8.20;5.45;;;640.70;742.40;;;;;;5084781;28;20401;-82
2021/05/08 11:59:53;;;;;;;6.22;5.30;;;614.50;768.00;;;;;;5085745;28;20059;-82
2021/05/08 12:02:23;;;;;;;6.88;5.18;;;563.30;896.00;;;;;;5084507;28;20588;-82
2021/05/08 12:04:57;;;;;;;8.88;5.72;;;563.30;896.00;;;;;;5090351;28;20039;-84
2021/05/08 12:07:31;;;;;;;7.00;5.03;;;563.30;870.40;;;;;;5087421;28;20035;-82
2021/05/08 12:10:15;;;;;;;5.72;4.30;;;564.10;844.80;;;;;;5088082;28;20044;-81
2021/05/08 12:12:53;;;;;;;6.47;4.72;;;563.30;844.80;;;;;;5087293;28;20071;-81
2021/05/08 12:15:20;;;;;;;9.07;6.47;;;537.90;844.80;;;;;;5088171;28;20070;-81
2021/05/08 12:17:47;;;;;;;9.90;7.60;;;537.60;844.80;;;;;;5088637;28;20330;-81
2021/05/08 12:20:16;;;;;;;7.60;4.38;;;563.80;819.20;;;;;;5081678;28;20039;-81
2021/05/08 12:22:42;;;;;;;7.75;6.38;;;589.40;742.40;;;;;;5082679;28;20181;-81